createdAt,value
2019-03-27T00:02:20.282Z,49.50
2019-03-27T00:04:46.567Z,49.60
2019-03-27T00:07:12.923Z,49.60
2019-03-27T00:09:39.198Z,49.60
2019-03-27T00:12:05.558Z,49.70
2019-03-27T00:14:31.833Z,49.70
2019-03-27T00:16:58.239Z,49.70
2019-03-27T00:19:24.522Z,49.70
2019-03-27T00:21:51.992Z,49.80
2019-03-27T00:24:18.265Z,49.80
2019-03-27T00:26:44.651Z,49.90
2019-03-27T00:29:11.110Z,49.90
2019-03-27T00:31:37.498Z,49.90
2019-03-27T00:34:03.778Z,49.80
2019-03-27T00:36:30.072Z,49.90
2019-03-27T00:38:56.679Z,49.90
2019-03-27T00:41:22.957Z,50.00
2019-03-27T00:43:49.327Z,50.00
2019-03-27T00:46:15.794Z,50.00
2019-03-27T00:48:42.609Z,50.00
2019-03-27T00:51:08.898Z,50.10
2019-03-27T00:53:35.162Z,50.10
2019-03-27T00:56:01.430Z,50.20
2019-03-27T00:58:27.724Z,50.20
2019-03-27T01:01:03.584Z,50.20
2019-03-27T01:03:29.982Z,50.20
2019-03-27T01:05:56.238Z,50.30
2019-03-27T01:08:22.905Z,50.20
2019-03-27T01:10:49.226Z,50.20
2019-03-27T01:13:15.723Z,50.20
2019-03-27T01:15:41.991Z,50.30
2019-03-27T01:18:08.617Z,50.30
2019-03-27T01:20:35.891Z,50.30
2019-03-27T01:23:02.282Z,50.40
2019-03-27T01:25:28.545Z,50.40
2019-03-27T01:27:54.827Z,50.40
2019-03-27T01:30:21.197Z,50.40
2019-03-27T01:32:47.743Z,50.50
2019-03-27T01:35:14.017Z,50.50
2019-03-27T01:37:40.269Z,50.40
2019-03-27T01:40:06.974Z,50.50
2019-03-27T01:42:33.343Z,50.50
2019-03-27T01:44:59.830Z,50.50
2019-03-27T01:47:26.199Z,50.60
2019-03-27T01:49:53.596Z,50.60
2019-03-27T01:52:19.967Z,50.60
2019-03-27T01:54:46.456Z,50.70
2019-03-27T01:57:13.811Z,50.70
2019-03-27T01:59:40.190Z,50.80
2019-03-27T02:02:06.466Z,50.80
2019-03-27T02:04:32.967Z,50.80
2019-03-27T02:06:59.254Z,50.90
2019-03-27T02:09:25.597Z,50.80
2019-03-27T02:11:51.950Z,50.90
2019-03-27T02:14:18.255Z,50.80
2019-03-27T02:16:44.547Z,50.80
2019-03-27T02:19:10.931Z,50.90
2019-03-27T02:21:37.418Z,50.70
2019-03-27T02:24:04.099Z,50.70
2019-03-27T02:26:30.378Z,50.70
2019-03-27T02:28:56.666Z,50.60
2019-03-27T02:31:22.923Z,50.60
2019-03-27T02:33:49.230Z,50.50
2019-03-27T02:36:16.600Z,50.50
2019-03-27T02:38:43.085Z,50.40
2019-03-27T02:41:09.438Z,50.30
2019-03-27T02:43:35.725Z,50.20
2019-03-27T02:46:02.593Z,50.20
2019-03-27T02:48:28.878Z,50.20
2019-03-27T02:50:55.146Z,50.30
2019-03-27T02:53:22.630Z,50.20
2019-03-27T02:55:48.887Z,50.20
2019-03-27T02:58:15.166Z,50.20
2019-03-27T03:00:41.587Z,50.20
2019-03-27T03:03:07.863Z,50.30
2019-03-27T03:05:34.157Z,50.30
2019-03-27T03:08:00.841Z,50.20
2019-03-27T03:10:27.141Z,50.30
2019-03-27T03:12:53.828Z,50.20
2019-03-27T03:15:21.723Z,50.30
2019-03-27T03:17:48.623Z,50.70
2019-03-27T03:20:15.023Z,50.30
2019-03-27T03:22:41.388Z,50.30
2019-03-27T03:25:08.105Z,50.30
2019-03-27T03:27:34.991Z,50.40
2019-03-27T03:30:01.501Z,50.30
2019-03-27T03:32:29.025Z,50.30
2019-03-27T03:34:55.377Z,50.40
2019-03-27T03:37:22.251Z,50.40
2019-03-27T03:39:48.896Z,50.40
2019-03-27T03:42:15.640Z,50.50
2019-03-27T03:44:42.027Z,50.50
2019-03-27T03:47:08.408Z,50.50
2019-03-27T03:49:34.790Z,50.50
2019-03-27T03:52:02.272Z,50.50
2019-03-27T03:54:29.072Z,50.60
2019-03-27T03:56:56.261Z,50.60
2019-03-27T03:59:23.608Z,50.70
2019-03-27T04:01:52.592Z,50.70
2019-03-27T04:04:20.575Z,50.70
2019-03-27T04:06:47.135Z,50.70
2019-03-27T04:09:13.554Z,50.70
2019-03-27T04:11:39.838Z,50.70
2019-03-27T04:14:06.210Z,50.70
2019-03-27T04:16:32.778Z,50.80
2019-03-27T04:18:59.051Z,50.80
2019-03-27T04:21:27.088Z,50.80
2019-03-27T04:23:53.723Z,50.90
2019-03-27T04:26:20.506Z,50.90
2019-03-27T04:28:46.882Z,50.90
2019-03-27T04:31:13.264Z,51.00
2019-03-27T04:33:39.568Z,51.10
2019-03-27T04:36:06.351Z,51.10
2019-03-27T04:38:32.611Z,51.20
2019-03-27T04:40:58.919Z,51.30
2019-03-27T04:43:25.382Z,51.40
2019-03-27T04:45:52.853Z,51.50
2019-03-27T04:48:19.135Z,51.60
2019-03-27T04:50:45.504Z,51.70
2019-03-27T04:53:11.885Z,51.80
2019-03-27T04:55:38.203Z,52.00
2019-03-27T04:58:04.672Z,52.00
2019-03-27T05:00:31.158Z,52.00
2019-03-27T05:02:57.567Z,52.00
2019-03-27T05:05:23.826Z,52.00
2019-03-27T05:07:50.131Z,52.00
2019-03-27T05:10:16.494Z,52.10
2019-03-27T05:12:43.649Z,52.00
2019-03-27T05:15:10.026Z,52.00
2019-03-27T05:17:45.769Z,52.10
2019-03-27T05:20:06.218Z,52.00
2019-03-27T05:22:32.510Z,51.90
2019-03-27T05:24:59.057Z,51.90
2019-03-27T05:27:25.352Z,51.90
2019-03-27T05:29:51.611Z,52.00
2019-03-27T05:32:19.020Z,52.00
2019-03-27T05:34:45.296Z,52.10
2019-03-27T05:37:11.682Z,52.10
2019-03-27T05:39:37.942Z,52.20
2019-03-27T05:42:04.587Z,52.20
2019-03-27T05:44:30.862Z,52.20
2019-03-27T05:46:57.146Z,52.20
2019-03-27T05:49:23.797Z,52.30
2019-03-27T05:51:50.091Z,52.50
2019-03-27T05:54:16.654Z,52.60
2019-03-27T05:56:43.047Z,52.60
2019-03-27T05:59:09.722Z,52.60
2019-03-27T06:01:36.483Z,52.70
2019-03-27T06:04:02.963Z,52.70
2019-03-27T06:06:29.251Z,52.80
2019-03-27T06:08:55.877Z,52.90
2019-03-27T06:11:22.133Z,52.90
2019-03-27T06:13:48.427Z,53.00
2019-03-27T06:16:14.790Z,53.10
2019-03-27T06:18:41.274Z,53.20
2019-03-27T06:21:07.551Z,53.30
2019-03-27T06:23:33.936Z,53.40
2019-03-27T06:26:00.416Z,53.40
2019-03-27T06:28:27.018Z,53.40
2019-03-27T06:30:53.282Z,53.50
2019-03-27T06:33:19.595Z,53.50
2019-03-27T06:35:45.950Z,53.60
2019-03-27T06:38:12.330Z,53.60
2019-03-27T06:40:39.838Z,53.80
2019-03-27T06:43:06.302Z,53.80
2019-03-27T06:45:32.891Z,53.90
2019-03-27T06:47:59.265Z,54.00
2019-03-27T06:50:25.843Z,54.10
2019-03-27T06:52:52.139Z,54.20
2019-03-27T06:55:18.511Z,54.20
2019-03-27T06:57:45.246Z,54.10
2019-03-27T07:00:12.802Z,53.90
2019-03-27T07:02:40.305Z,53.80
2019-03-27T07:05:06.978Z,53.60
2019-03-27T07:07:33.292Z,53.60
2019-03-27T07:09:59.550Z,53.60
2019-03-27T07:12:26.200Z,53.60
2019-03-27T07:14:52.575Z,53.70
2019-03-27T07:17:18.968Z,53.80
2019-03-27T07:19:45.330Z,53.80
2019-03-27T07:22:12.060Z,53.80
2019-03-27T07:24:38.347Z,53.80
2019-03-27T07:27:05.099Z,53.90
2019-03-27T07:29:31.463Z,53.90
2019-03-27T07:31:57.882Z,54.00
2019-03-27T07:34:24.154Z,53.90
2019-03-27T07:36:50.839Z,53.80
2019-03-27T07:39:17.113Z,53.80
2019-03-27T07:41:43.492Z,53.60
2019-03-27T07:44:09.881Z,53.80
2019-03-27T07:46:36.395Z,53.80
2019-03-27T07:49:02.971Z,53.90
2019-03-27T07:51:29.439Z,54.00
2019-03-27T07:53:56.022Z,54.20
2019-03-27T07:56:22.286Z,54.40
2019-03-27T07:58:48.566Z,54.60
2019-03-27T08:01:14.822Z,54.70
2019-03-27T08:03:41.622Z,54.80
2019-03-27T08:06:07.899Z,55.00
2019-03-27T08:08:34.206Z,55.10
2019-03-27T08:11:00.470Z,55.10
2019-03-27T08:13:26.864Z,55.30
2019-03-27T08:15:53.117Z,55.30
2019-03-27T08:18:19.690Z,54.80
2019-03-27T08:20:46.336Z,54.60
2019-03-27T08:23:12.632Z,54.50
2019-03-27T08:25:38.994Z,54.40
2019-03-27T08:28:05.279Z,54.30
2019-03-27T08:30:31.969Z,54.20
2019-03-27T08:32:58.478Z,54.20
2019-03-27T08:35:24.849Z,54.10
2019-03-27T08:37:51.134Z,54.20
2019-03-27T08:40:17.594Z,55.00
2019-03-27T08:42:43.889Z,56.30
2019-03-27T08:45:11.387Z,57.50
2019-03-27T08:47:37.861Z,58.80
2019-03-27T08:50:07.479Z,59.50
2019-03-27T08:52:35.090Z,59.60
2019-03-27T08:55:02.455Z,59.20
2019-03-27T08:57:28.719Z,58.60
2019-03-27T08:59:55.011Z,58.00
2019-03-27T09:02:21.652Z,56.20
2019-03-27T09:04:48.272Z,55.90
2019-03-27T09:07:14.635Z,54.70
2019-03-27T09:09:41.052Z,51.50
2019-03-27T09:12:07.427Z,50.80
2019-03-27T09:14:33.815Z,48.80
2019-03-27T09:17:00.539Z,46.50
2019-03-27T09:19:35.613Z,46.50
2019-03-27T09:21:55.183Z,46.40
2019-03-27T09:24:21.467Z,46.60
2019-03-27T09:26:47.822Z,44.80
2019-03-27T09:29:14.108Z,45.30
2019-03-27T09:31:45.075Z,43.00
2019-03-27T09:34:08.841Z,43.70
2019-03-27T09:36:35.406Z,43.80
2019-03-27T09:39:01.809Z,43.20
2019-03-27T09:41:28.758Z,42.20
2019-03-27T09:43:55.366Z,42.20
2019-03-27T09:46:21.831Z,41.50
2019-03-27T09:48:48.576Z,39.10
2019-03-27T09:51:15.052Z,36.30
2019-03-27T09:53:41.338Z,35.00
2019-03-27T09:56:18.276Z,34.20
2019-03-27T09:58:35.808Z,32.90
2019-03-27T10:01:03.163Z,32.30
2019-03-27T10:03:30.249Z,32.20
2019-03-27T10:05:56.516Z,32.20
2019-03-27T10:08:22.942Z,32.60
2019-03-27T10:10:49.390Z,32.90
2019-03-27T10:13:17.779Z,33.30
2019-03-27T10:15:44.374Z,33.60
2019-03-27T10:18:10.637Z,34.10
2019-03-27T10:20:36.914Z,34.60
2019-03-27T10:23:03.323Z,35.10
2019-03-27T10:25:29.704Z,35.60
2019-03-27T10:27:56.062Z,36.00
2019-03-27T10:30:22.747Z,36.30
2019-03-27T10:32:49.016Z,36.80
2019-03-27T10:35:15.427Z,37.20
2019-03-27T10:37:41.773Z,37.60
2019-03-27T10:40:08.914Z,37.90
2019-03-27T10:42:35.174Z,38.10
2019-03-27T10:45:01.562Z,38.40
2019-03-27T10:47:28.199Z,38.60
2019-03-27T10:49:54.587Z,38.60
2019-03-27T10:52:20.849Z,38.80
2019-03-27T10:54:47.143Z,39.00
2019-03-27T10:57:13.411Z,39.20
2019-03-27T10:59:39.691Z,39.50
2019-03-27T11:02:06.952Z,40.20
2019-03-27T11:04:33.358Z,41.90
2019-03-27T11:06:59.614Z,43.40
2019-03-27T11:09:25.972Z,44.50
2019-03-27T11:11:52.306Z,44.60
2019-03-27T11:14:18.691Z,42.70
2019-03-27T11:16:44.946Z,42.80
2019-03-27T11:19:11.246Z,41.80
2019-03-27T11:21:37.955Z,39.80
2019-03-27T11:24:04.247Z,37.70
2019-03-27T11:26:30.515Z,36.00
2019-03-27T11:28:56.890Z,34.90
2019-03-27T11:31:23.280Z,34.20
2019-03-27T11:33:49.831Z,33.70
2019-03-27T11:36:16.186Z,33.40
2019-03-27T11:38:42.482Z,33.20
2019-03-27T11:41:11.977Z,33.30
2019-03-27T11:43:37.412Z,33.20
2019-03-27T11:46:04.008Z,33.30
2019-03-27T11:48:30.277Z,33.30
2019-03-27T11:50:56.910Z,33.50
2019-03-27T11:53:23.179Z,33.60
2019-03-27T11:55:49.559Z,33.20
2019-03-27T11:58:15.919Z,33.70
2019-03-27T12:00:53.793Z,34.00
2019-03-27T12:03:10.454Z,34.10
2019-03-27T12:05:37.131Z,34.30
2019-03-27T12:08:03.397Z,34.50
2019-03-27T12:10:29.778Z,35.20
2019-03-27T12:12:56.125Z,35.10
2019-03-27T12:15:37.474Z,35.20
2019-03-27T12:18:06.244Z,35.30
2019-03-27T12:20:32.632Z,35.80
2019-03-27T12:22:58.978Z,35.20
2019-03-27T12:25:25.603Z,35.40
2019-03-27T12:27:51.962Z,35.30
2019-03-27T12:30:18.356Z,36.10
2019-03-27T12:32:44.615Z,36.70
2019-03-27T12:35:11.635Z,36.20
2019-03-27T12:37:38.000Z,35.90
2019-03-27T12:40:11.318Z,35.00
2019-03-27T12:42:32.957Z,34.50
2019-03-27T12:45:01.710Z,34.20
2019-03-27T12:47:27.501Z,34.50
2019-03-27T12:49:53.795Z,33.50
2019-03-27T12:52:20.051Z,33.50
2019-03-27T12:54:46.707Z,33.30
2019-03-27T12:57:13.066Z,34.20
2019-03-27T12:59:39.360Z,32.70
2019-03-27T13:02:06.604Z,33.60
2019-03-27T13:04:33.035Z,33.20
2019-03-27T13:06:59.381Z,32.70
2019-03-27T13:09:25.783Z,32.00
2019-03-27T13:11:52.137Z,31.90
2019-03-27T13:14:18.507Z,31.50
2019-03-27T13:16:44.773Z,31.60
2019-03-27T13:19:11.635Z,31.70
2019-03-27T13:21:37.908Z,31.60
2019-03-27T13:24:04.294Z,31.50
2019-03-27T13:26:30.559Z,30.80
2019-03-27T13:28:56.840Z,31.10
2019-03-27T13:31:23.499Z,31.20
2019-03-27T13:33:50.498Z,31.40
2019-03-27T13:36:18.202Z,31.70
2019-03-27T13:38:44.862Z,31.90
2019-03-27T13:41:11.597Z,32.10
2019-03-27T13:43:37.972Z,32.20
2019-03-27T13:46:04.490Z,32.10
2019-03-27T13:48:30.846Z,32.40
2019-03-27T13:50:57.434Z,32.40
2019-03-27T13:53:23.704Z,32.50
2019-03-27T13:55:49.991Z,32.50
2019-03-27T13:58:16.355Z,32.60
2019-03-27T14:00:42.842Z,32.50
2019-03-27T14:03:09.408Z,32.80
2019-03-27T14:05:35.947Z,32.50
2019-03-27T14:08:02.578Z,32.20
2019-03-27T14:10:29.183Z,32.50
2019-03-27T14:12:55.555Z,32.80
2019-03-27T14:15:22.458Z,33.20
2019-03-27T14:17:48.728Z,33.40
2019-03-27T14:20:15.848Z,33.70
2019-03-27T14:22:42.206Z,33.60
2019-03-27T14:25:09.386Z,33.00
2019-03-27T14:27:35.666Z,33.10
2019-03-27T14:30:04.067Z,33.10
2019-03-27T14:32:31.531Z,32.80
2019-03-27T14:34:57.843Z,32.70
2019-03-27T14:37:24.311Z,32.50
2019-03-27T14:39:50.706Z,32.40
2019-03-27T14:42:17.066Z,32.20
2019-03-27T14:44:43.353Z,31.50
2019-03-27T14:47:09.698Z,31.80
2019-03-27T14:49:37.689Z,31.90
2019-03-27T14:52:08.476Z,31.90
2019-03-27T14:54:32.500Z,32.00
2019-03-27T14:56:58.980Z,31.90
2019-03-27T14:59:25.243Z,31.90
2019-03-27T15:01:51.526Z,31.90
2019-03-27T15:04:17.811Z,31.80
2019-03-27T15:06:44.113Z,31.80
2019-03-27T15:09:10.378Z,31.90
2019-03-27T15:11:36.979Z,32.10
2019-03-27T15:14:03.557Z,32.20
2019-03-27T15:16:30.273Z,32.30
2019-03-27T15:18:57.048Z,32.40
2019-03-27T15:21:23.426Z,32.30
2019-03-27T15:23:49.694Z,32.30
2019-03-27T15:26:15.988Z,31.70
2019-03-27T15:28:42.446Z,31.60
2019-03-27T15:31:19.964Z,30.20
2019-03-27T15:33:37.195Z,30.60
2019-03-27T15:36:03.983Z,30.30
2019-03-27T15:38:30.447Z,30.80
2019-03-27T15:40:56.734Z,31.00
2019-03-27T15:43:22.993Z,31.10
2019-03-27T15:45:49.278Z,31.20
2019-03-27T15:48:15.537Z,31.40
2019-03-27T15:50:54.287Z,31.40
2019-03-27T15:53:10.203Z,31.40
2019-03-27T15:55:36.778Z,31.50
2019-03-27T15:58:03.181Z,31.60
2019-03-27T16:00:29.576Z,31.60
2019-03-27T16:02:56.047Z,31.70
2019-03-27T16:05:22.815Z,31.70
2019-03-27T16:07:49.158Z,31.60
2019-03-27T16:10:18.184Z,31.60
2019-03-27T16:12:43.811Z,31.60
2019-03-27T16:15:10.999Z,31.70
2019-03-27T16:17:37.382Z,31.80
2019-03-27T16:20:05.446Z,31.70
2019-03-27T16:22:31.745Z,31.80
2019-03-27T16:24:58.220Z,32.00
2019-03-27T16:27:24.826Z,32.00
2019-03-27T16:29:51.086Z,32.10
2019-03-27T16:32:17.503Z,32.30
2019-03-27T16:34:43.771Z,32.40
2019-03-27T16:37:10.456Z,32.40
2019-03-27T16:39:36.931Z,32.40
2019-03-27T16:42:03.419Z,32.40
2019-03-27T16:44:29.675Z,32.50
2019-03-27T16:46:56.367Z,32.50
2019-03-27T16:49:22.626Z,32.70
2019-03-27T16:51:48.912Z,32.70
2019-03-27T16:54:15.258Z,32.80
2019-03-27T16:56:42.030Z,32.80
2019-03-27T16:59:08.523Z,33.00
2019-03-27T17:01:35.103Z,33.10
2019-03-27T17:04:01.473Z,33.20
2019-03-27T17:06:28.153Z,33.20
2019-03-27T17:08:54.517Z,33.30
2019-03-27T17:11:21.107Z,33.30
2019-03-27T17:13:47.650Z,33.40
2019-03-27T17:16:14.315Z,33.40
2019-03-27T17:18:40.857Z,33.50
2019-03-27T17:21:07.410Z,33.50
2019-03-27T17:23:33.769Z,33.60
2019-03-27T17:26:00.790Z,33.90
2019-03-27T17:28:27.223Z,33.80
2019-03-27T17:30:53.618Z,33.90
2019-03-27T17:33:19.983Z,33.90
2019-03-27T17:35:46.298Z,34.00
2019-03-27T17:38:13.043Z,34.00
2019-03-27T17:40:39.749Z,34.10
2019-03-27T17:43:06.590Z,34.20
2019-03-27T17:45:33.054Z,34.30
2019-03-27T17:48:00.818Z,34.40
2019-03-27T17:50:27.192Z,34.50
2019-03-27T17:52:53.566Z,34.50
2019-03-27T17:55:20.174Z,34.60
2019-03-27T17:57:46.939Z,34.60
2019-03-27T18:00:18.045Z,34.70
2019-03-27T18:02:44.422Z,34.90
2019-03-27T18:05:11.215Z,35.40
2019-03-27T18:07:37.639Z,35.10
2019-03-27T18:10:05.517Z,35.20
2019-03-27T18:12:32.269Z,35.80
2019-03-27T18:14:58.736Z,35.30
2019-03-27T18:17:25.354Z,35.60
2019-03-27T18:19:51.718Z,35.70
2019-03-27T18:22:18.007Z,35.90
2019-03-27T18:24:44.379Z,36.00
2019-03-27T18:27:10.657Z,36.20
2019-03-27T18:29:36.923Z,36.20
2019-03-27T18:32:03.211Z,36.30
2019-03-27T18:34:29.475Z,36.40
2019-03-27T18:36:56.215Z,36.50
2019-03-27T18:39:23.683Z,36.60
2019-03-27T18:41:49.961Z,36.70
2019-03-27T18:44:16.532Z,36.80
2019-03-27T18:46:43.091Z,37.00
2019-03-27T18:49:11.767Z,37.10
2019-03-27T18:51:38.150Z,37.20
2019-03-27T18:54:04.619Z,37.30
2019-03-27T18:56:31.270Z,37.50
2019-03-27T18:58:57.658Z,37.60
2019-03-27T19:01:24.162Z,37.60
2019-03-27T19:03:50.659Z,37.80
2019-03-27T19:06:17.151Z,37.90
2019-03-27T19:08:43.545Z,38.00
2019-03-27T19:11:09.866Z,38.70
2019-03-27T19:13:36.407Z,38.20
2019-03-27T19:16:02.775Z,38.80
2019-03-27T19:18:29.154Z,38.30
2019-03-27T19:20:55.505Z,38.40
2019-03-27T19:23:21.807Z,38.50
2019-03-27T19:25:48.579Z,38.60
2019-03-27T19:28:15.163Z,38.80
2019-03-27T19:30:41.784Z,38.80
2019-03-27T19:36:33.123Z,38.90
2019-03-27T19:39:06.196Z,38.90
2019-03-27T19:41:33.426Z,39.00
2019-03-27T19:44:00.181Z,39.20
2019-03-27T19:46:26.719Z,39.30
2019-03-27T19:48:53.443Z,39.40
2019-03-27T19:51:19.806Z,39.50
2019-03-27T19:53:46.214Z,39.60
2019-03-27T19:56:12.823Z,39.60
2019-03-27T19:58:39.383Z,39.70
2019-03-27T20:01:06.555Z,39.70
2019-03-27T20:03:34.614Z,39.80
2019-03-27T20:06:01.220Z,39.80
2019-03-27T20:08:27.639Z,40.00
2019-03-27T20:10:54.314Z,40.00
2019-03-27T20:13:20.707Z,40.10
2019-03-27T20:15:47.483Z,40.20
2019-03-27T20:18:13.885Z,40.30
2019-03-27T20:20:40.514Z,40.30
2019-03-27T20:23:14.982Z,40.40
2019-03-27T20:25:35.219Z,40.60
2019-03-27T20:28:01.501Z,40.60
2019-03-27T20:33:38.168Z,40.70
2019-03-27T20:36:04.727Z,40.70
2019-03-27T20:38:31.466Z,40.90
2019-03-27T20:40:57.727Z,41.00
2019-03-27T20:43:24.129Z,41.10
2019-03-27T20:45:50.896Z,41.60
2019-03-27T20:48:17.286Z,41.10
2019-03-27T20:50:43.619Z,41.20
2019-03-27T20:53:10.376Z,41.30
2019-03-27T20:55:36.762Z,41.30
2019-03-27T20:58:03.441Z,41.40
2019-03-27T21:00:30.010Z,41.50
2019-03-27T21:02:56.392Z,41.60
2019-03-27T21:05:22.650Z,41.60
2019-03-27T21:07:48.959Z,41.70
2019-03-27T21:10:15.531Z,41.70
2019-03-27T21:12:42.148Z,41.70
2019-03-27T21:15:10.338Z,41.80
2019-03-27T21:17:36.730Z,41.90
2019-03-27T21:20:04.510Z,41.90
2019-03-27T21:22:30.798Z,42.10
2019-03-27T21:25:07.881Z,42.00
2019-03-27T21:27:25.579Z,42.20
2019-03-27T21:29:51.860Z,42.20
2019-03-27T21:32:18.309Z,42.20
2019-03-27T21:34:44.694Z,42.30
2019-03-27T21:37:12.251Z,42.30
2019-03-27T21:39:38.553Z,42.40
2019-03-27T21:42:04.810Z,42.40
2019-03-27T21:44:31.103Z,42.40
2019-03-27T21:46:57.359Z,42.50
2019-03-27T21:49:23.758Z,42.60
2019-03-27T21:51:50.031Z,42.60
2019-03-27T21:54:16.579Z,42.70
2019-03-27T21:56:42.867Z,42.90
2019-03-27T21:59:09.174Z,42.90
2019-03-27T22:01:35.437Z,43.00
2019-03-27T22:04:01.730Z,43.00
2019-03-27T22:06:28.090Z,43.00
2019-03-27T22:08:54.410Z,43.00
2019-03-27T22:11:20.765Z,43.10
2019-03-27T22:13:47.166Z,43.10
2019-03-27T22:16:14.734Z,43.20
2019-03-27T22:18:41.111Z,43.20
2019-03-27T22:21:07.403Z,43.20
2019-03-27T22:23:33.939Z,43.30
2019-03-27T22:26:00.231Z,43.30
2019-03-27T22:28:26.915Z,43.40
2019-03-27T22:30:53.307Z,43.50
2019-03-27T22:33:19.685Z,43.60
2019-03-27T22:35:46.078Z,43.60
2019-03-27T22:38:12.472Z,43.60
2019-03-27T22:40:38.991Z,43.60
2019-03-27T22:43:05.611Z,44.10
2019-03-27T22:45:33.007Z,43.70
2019-03-27T22:47:59.708Z,43.80
2019-03-27T22:50:26.369Z,43.90
2019-03-27T22:52:53.087Z,43.80
2019-03-27T22:55:19.375Z,43.80
2019-03-27T22:57:45.683Z,43.90
2019-03-27T23:00:12.649Z,43.90
2019-03-27T23:02:41.051Z,43.90
2019-03-27T23:05:07.923Z,44.00
2019-03-27T23:07:34.685Z,44.00
2019-03-27T23:10:02.688Z,44.00
2019-03-27T23:12:30.191Z,44.10
2019-03-27T23:14:56.459Z,44.20
2019-03-27T23:17:22.758Z,44.20
2019-03-27T23:19:51.358Z,44.30
2019-03-27T23:22:17.347Z,44.40
2019-03-27T23:24:43.888Z,44.50
2019-03-27T23:27:10.551Z,44.60
2019-03-27T23:29:36.919Z,44.60
2019-03-27T23:32:03.515Z,44.60
2019-03-27T23:34:29.891Z,44.70
2019-03-27T23:36:56.263Z,44.80
2019-03-27T23:39:22.836Z,44.80
2019-03-27T23:41:49.211Z,45.00
2019-03-27T23:44:15.603Z,45.10
2019-03-27T23:46:41.875Z,45.10
2019-03-27T23:49:08.172Z,45.30
2019-03-27T23:51:34.451Z,45.30
2019-03-27T23:54:01.099Z,45.40
2019-03-27T23:56:27.827Z,45.50
2019-03-27T23:58:54.220Z,45.50
